Time;durP1;ratioP1;P1;durP2;ratioP2;P2;SDS_P1;SDS_P2;PMS_P1;PMS_P2;Temp;Humidity;BMP_temperature;BMP_pressure;BME280_temperature;BME280_humidity;BME280_pressure;Samples;Min_cycle;Max_cycle;Signal;HPM_P1;HPM_P2
2022/04/18 00:02:22;;;;;;;10.88;5.80;;;2.70;99.90;;;;;;5013869;28;20045;-61
2022/04/18 00:04:48;;;;;;;9.52;5.20;;;2.80;99.90;;;;;;5017721;28;20036;-61
2022/04/18 00:07:14;;;;;;;9.60;5.18;;;2.90;99.90;;;;;;5022951;28;20034;-61
2022/04/18 00:09:39;;;;;;;11.27;5.35;;;2.80;99.90;;;;;;5010647;28;21434;-61
2022/04/18 00:12:05;;;;;;;8.68;5.05;;;2.80;99.90;;;;;;5021220;28;20113;-61
2022/04/18 00:14:31;;;;;;;11.73;5.60;;;2.80;99.90;;;;;;5014645;28;20156;-61
2022/04/18 00:16:57;;;;;;;9.38;5.43;;;2.70;99.90;;;;;;5023106;28;20132;-61
2022/04/18 00:19:23;;;;;;;11.70;5.40;;;2.60;99.90;;;;;;5020540;28;20052;-61
2022/04/18 00:21:50;;;;;;;10.57;5.15;;;2.50;99.90;;;;;;5026997;28;20044;-61
2022/04/18 00:24:17;;;;;;;10.73;5.55;;;2.40;99.90;;;;;;5020082;28;20041;-61
2022/04/18 00:26:44;;;;;;;12.30;6.00;;;2.40;99.90;;;;;;5003135;28;20064;-61
2022/04/18 00:29:10;;;;;;;11.13;5.43;;;2.40;99.90;;;;;;5021622;28;20390;-61
2022/04/18 00:31:36;;;;;;;11.93;5.78;;;2.40;99.90;;;;;;5023607;28;20187;-61
2022/04/18 00:34:03;;;;;;;10.90;5.57;;;2.30;99.90;;;;;;5012169;28;20497;-61
2022/04/18 00:36:29;;;;;;;9.63;4.90;;;2.30;99.90;;;;;;5011697;28;20027;-61
2022/04/18 00:38:54;;;;;;;12.32;5.80;;;2.30;99.90;;;;;;4994328;28;20502;-61
2022/04/18 00:41:20;;;;;;;13.43;5.75;;;2.30;99.90;;;;;;5011723;28;20033;-61
2022/04/18 00:43:48;;;;;;;11.55;5.90;;;2.20;99.90;;;;;;5019641;28;20046;-61
2022/04/18 00:46:16;;;;;;;13.50;5.85;;;2.20;99.90;;;;;;5001919;28;20473;-61
2022/04/18 00:48:43;;;;;;;12.90;6.18;;;2.10;99.90;;;;;;4998922;28;20390;-61
2022/04/18 00:51:11;;;;;;;15.85;6.32;;;2.10;99.90;;;;;;5027176;28;20045;-61
2022/04/18 00:53:39;;;;;;;14.60;6.22;;;2.10;99.90;;;;;;5013762;28;20073;-61
2022/04/18 00:56:06;;;;;;;13.50;6.30;;;2.10;99.90;;;;;;5029061;28;20029;-61
2022/04/18 00:58:32;;;;;;;11.73;5.55;;;2.20;99.90;;;;;;5015939;28;20022;-61
2022/04/18 01:00:58;;;;;;;12.20;6.10;;;2.20;99.90;;;;;;5015973;28;20049;-61
2022/04/18 01:03:24;;;;;;;12.10;5.90;;;2.00;99.90;;;;;;5023259;28;20061;-61
2022/04/18 01:05:50;;;;;;;13.93;6.43;;;2.00;99.90;;;;;;5014994;28;20022;-61
2022/04/18 01:08:16;;;;;;;11.82;5.68;;;1.90;99.90;;;;;;5012870;28;20768;-61
2022/04/18 01:10:44;;;;;;;13.20;5.57;;;1.90;99.90;;;;;;5017448;28;20022;-61
2022/04/18 01:13:11;;;;;;;11.30;5.45;;;1.80;99.90;;;;;;5013773;28;20033;-62
2022/04/18 01:15:36;;;;;;;11.32;5.60;;;1.90;99.90;;;;;;5017564;28;20053;-61
2022/04/18 01:18:02;;;;;;;10.77;5.30;;;1.90;99.90;;;;;;5013752;28;20044;-61
2022/04/18 01:20:34;;;;;;;13.98;6.18;;;1.90;99.90;;;;;;5011929;28;20105;-61
2022/04/18 01:23:01;;;;;;;12.55;5.97;;;1.80;99.90;;;;;;5015892;28;20121;-61
2022/04/18 01:30:57;;;;;;;13.60;6.20;;;1.70;99.90;;;;;;5022298;28;20083;-61
2022/04/18 01:33:23;;;;;;;14.23;5.78;;;1.60;99.90;;;;;;5018781;28;20041;-61
2022/04/18 01:35:49;;;;;;;12.13;5.68;;;1.60;99.90;;;;;;5013423;28;20564;-61
2022/04/18 01:38:14;;;;;;;14.25;5.65;;;1.60;99.90;;;;;;5024309;28;20108;-61
2022/04/18 01:40:40;;;;;;;12.40;6.00;;;1.50;99.90;;;;;;5018726;28;20064;-60
2022/04/18 01:43:06;;;;;;;13.43;6.55;;;1.40;99.90;;;;;;5002726;28;20072;-61
2022/04/18 01:45:32;;;;;;;13.88;6.15;;;1.40;99.90;;;;;;4993093;28;20419;-61
2022/04/18 01:47:58;;;;;;;10.43;5.80;;;1.40;99.90;;;;;;5020970;28;20091;-61
2022/04/18 01:50:24;;;;;;;13.18;5.82;;;1.40;99.90;;;;;;5018414;28;20120;-61
2022/04/18 01:52:50;;;;;;;10.75;5.53;;;1.40;99.90;;;;;;5024969;28;20083;-61
2022/04/18 01:55:15;;;;;;;16.08;6.68;;;1.40;99.90;;;;;;5012641;28;20761;-61
2022/04/18 01:57:41;;;;;;;13.40;6.32;;;1.40;99.90;;;;;;5026485;28;20025;-61
2022/04/18 02:00:07;;;;;;;13.50;6.00;;;1.40;99.90;;;;;;5014396;28;20584;-61
2022/04/18 02:02:33;;;;;;;12.80;5.68;;;1.40;99.90;;;;;;5017915;28;20038;-61
2022/04/18 02:05:00;;;;;;;14.10;5.82;;;1.40;99.90;;;;;;5009533;28;20041;-61
2022/04/18 02:07:26;;;;;;;11.88;5.57;;;1.20;99.90;;;;;;5004328;28;20486;-61
2022/04/18 02:09:52;;;;;;;14.32;6.22;;;1.20;99.90;;;;;;5017649;28;20145;-61
2022/04/18 02:12:18;;;;;;;13.88;6.57;;;1.20;99.90;;;;;;5015970;28;20454;-61
2022/04/18 02:14:43;;;;;;;12.20;6.07;;;1.20;99.90;;;;;;5010045;28;20045;-61
2022/04/18 02:17:09;;;;;;;11.65;5.68;;;1.10;99.90;;;;;;5025717;28;20092;-61
2022/04/18 02:19:34;;;;;;;12.18;5.70;;;1.00;99.90;;;;;;5019044;28;20495;-61
2022/04/18 02:22:00;;;;;;;12.52;5.78;;;1.00;99.90;;;;;;5019954;28;20079;-61
2022/04/18 02:24:26;;;;;;;11.20;5.85;;;1.00;99.90;;;;;;5017575;28;20044;-61
2022/04/18 02:26:52;;;;;;;12.98;6.05;;;1.00;99.90;;;;;;4999079;28;20040;-61
2022/04/18 02:29:18;;;;;;;13.48;5.80;;;1.00;99.90;;;;;;5009848;28;20025;-61
2022/04/18 02:34:28;;;;;;;10.60;5.43;;;1.00;99.90;;;;;;5020531;28;20040;-61
2022/04/18 02:36:53;;;;;;;12.05;5.40;;;0.80;99.90;;;;;;5021058;28;20034;-61
2022/04/18 02:39:19;;;;;;;13.45;6.15;;;0.70;99.90;;;;;;5013087;28;20376;-61
2022/04/18 02:41:45;;;;;;;10.63;5.80;;;0.80;99.90;;;;;;5016319;28;20493;-61
2022/04/18 02:44:10;;;;;;;11.52;5.32;;;0.90;99.90;;;;;;5014492;28;20026;-61
2022/04/18 02:46:36;;;;;;;13.27;6.03;;;0.80;99.90;;;;;;5024688;28;20036;-61
2022/04/18 02:49:01;;;;;;;11.77;6.22;;;0.90;99.90;;;;;;4999676;28;20037;-61
2022/04/18 02:51:27;;;;;;;14.50;6.05;;;0.80;99.90;;;;;;5018416;28;20025;-61
2022/04/18 02:53:54;;;;;;;13.27;5.78;;;0.80;99.90;;;;;;5011626;28;20046;-61
2022/04/18 02:56:20;;;;;;;13.35;5.80;;;0.80;99.90;;;;;;5022000;28;20037;-61
2022/04/18 02:58:46;;;;;;;10.77;5.75;;;0.80;99.90;;;;;;5009390;28;20053;-61
2022/04/18 03:01:12;;;;;;;12.40;5.75;;;0.70;99.90;;;;;;4999907;28;20099;-61
2022/04/18 03:03:38;;;;;;;14.70;6.00;;;0.60;99.90;;;;;;5020248;28;20036;-61
2022/04/18 03:06:07;;;;;;;10.32;5.25;;;0.70;99.90;;;;;;5023032;28;20120;-61
2022/04/18 03:08:33;;;;;;;10.90;5.50;;;0.70;99.90;;;;;;5009293;28;20458;-61
2022/04/18 03:11:05;;;;;;;10.85;5.55;;;0.60;99.90;;;;;;5012045;28;20040;-61
2022/04/18 03:13:36;;;;;;;11.55;5.30;;;0.60;99.90;;;;;;5009521;28;20033;-61
2022/04/18 03:16:03;;;;;;;11.10;5.55;;;0.60;99.90;;;;;;5020822;28;20045;-61
2022/04/18 03:18:29;;;;;;;12.15;6.00;;;0.60;99.90;;;;;;5008861;28;20038;-61
2022/04/18 03:20:55;;;;;;;11.63;5.32;;;0.60;99.90;;;;;;5021653;28;20384;-60
2022/04/18 03:23:21;;;;;;;11.40;5.68;;;0.60;99.90;;;;;;5009265;28;20032;-61
2022/04/18 03:25:47;;;;;;;12.30;5.70;;;0.70;99.90;;;;;;5010553;28;20030;-61
2022/04/18 03:28:13;;;;;;;11.90;5.35;;;0.70;99.90;;;;;;5009105;28;20514;-61
2022/04/18 03:30:39;;;;;;;12.10;5.32;;;0.70;99.90;;;;;;5007062;28;20061;-61
2022/04/18 03:33:05;;;;;;;13.27;5.82;;;0.70;99.90;;;;;;5013708;28;20102;-61
2022/04/18 03:35:31;;;;;;;10.13;5.57;;;0.60;99.90;;;;;;5012429;28;20065;-61
2022/04/18 03:40:42;;;;;;;10.27;5.28;;;0.60;99.90;;;;;;4998804;28;20041;-61
2022/04/18 03:43:07;;;;;;;12.30;5.53;;;0.60;99.90;;;;;;5014452;28;20104;-61
2022/04/18 03:45:33;;;;;;;10.57;5.60;;;0.50;99.90;;;;;;5014266;28;20030;-61
2022/04/18 03:47:59;;;;;;;10.57;5.40;;;0.40;99.90;;;;;;5011566;28;20128;-61
2022/04/18 03:50:25;;;;;;;12.27;5.75;;;0.40;99.90;;;;;;5020414;28;20041;-61
2022/04/18 03:52:50;;;;;;;11.35;5.68;;;0.40;99.90;;;;;;5012017;28;20030;-61
2022/04/18 03:55:16;;;;;;;12.63;5.40;;;0.40;99.90;;;;;;5018496;28;20048;-61
2022/04/18 03:57:42;;;;;;;14.50;6.10;;;0.50;99.90;;;;;;5018034;28;20037;-61
2022/04/18 04:00:09;;;;;;;11.15;4.93;;;0.50;99.90;;;;;;5021238;28;20025;-61
2022/04/18 04:02:35;;;;;;;13.43;5.85;;;0.50;99.90;;;;;;5015224;28;20034;-61
2022/04/18 04:05:01;;;;;;;15.93;5.93;;;0.60;99.90;;;;;;5015289;28;20810;-61
2022/04/18 04:07:27;;;;;;;12.15;5.53;;;0.50;99.90;;;;;;5012347;28;20493;-61
2022/04/18 04:09:53;;;;;;;10.80;5.20;;;0.50;99.90;;;;;;5012464;28;20030;-61
2022/04/18 04:12:27;;;;;;;10.85;5.30;;;0.50;99.90;;;;;;5011755;28;20141;-61
2022/04/18 04:14:53;;;;;;;9.48;4.78;;;0.60;99.90;;;;;;5016821;28;20117;-61
2022/04/18 04:17:19;;;;;;;13.57;5.63;;;0.60;99.90;;;;;;5019846;28;20540;-61
2022/04/18 04:19:45;;;;;;;11.70;5.20;;;0.40;99.90;;;;;;5018549;28;20040;-61
2022/04/18 04:22:11;;;;;;;10.40;5.35;;;0.30;99.90;;;;;;5011873;28;20034;-61
2022/04/18 04:24:36;;;;;;;12.98;5.25;;;0.40;99.90;;;;;;5018597;28;20497;-61
2022/04/18 04:27:03;;;;;;;11.18;5.50;;;0.50;99.90;;;;;;5022210;28;20483;-61
2022/04/18 04:29:28;;;;;;;11.43;5.40;;;0.60;99.90;;;;;;5018818;28;20034;-61
2022/04/18 04:31:54;;;;;;;10.70;5.22;;;0.60;99.90;;;;;;5022062;28;20030;-60
2022/04/18 04:34:20;;;;;;;12.15;5.28;;;0.60;99.90;;;;;;5024589;28;20387;-61
2022/04/18 04:36:46;;;;;;;11.35;5.53;;;0.60;99.90;;;;;;5013078;28;20030;-61
2022/04/18 04:39:11;;;;;;;9.63;4.95;;;0.60;99.90;;;;;;5014369;28;20030;-61
2022/04/18 04:41:38;;;;;;;11.85;5.47;;;0.60;99.90;;;;;;5015285;28;20456;-61
2022/04/18 04:44:07;;;;;;;13.25;6.18;;;0.50;99.90;;;;;;5000919;28;20029;-61
2022/04/18 04:46:34;;;;;;;9.27;5.05;;;0.40;99.90;;;;;;5024327;28;20509;-61
2022/04/18 04:48:59;;;;;;;16.00;5.68;;;0.30;99.90;;;;;;5016910;28;20140;-60
2022/04/18 04:51:25;;;;;;;12.65;6.15;;;0.30;99.90;;;;;;5015265;28;20495;-61
2022/04/18 04:53:51;;;;;;;12.23;5.88;;;0.30;99.90;;;;;;5017847;28;20112;-60
2022/04/18 04:56:21;;;;;;;13.27;6.00;;;0.30;99.90;;;;;;5011477;28;20025;-61
2022/04/18 04:58:47;;;;;;;12.48;6.00;;;0.40;99.90;;;;;;5006521;28;20378;-61
2022/04/18 05:01:12;;;;;;;11.82;5.18;;;0.40;99.90;;;;;;5020956;28;20037;-61
2022/04/18 05:03:39;;;;;;;14.45;6.05;;;0.50;99.90;;;;;;5016406;28;20030;-61
2022/04/18 05:06:06;;;;;;;15.25;6.72;;;0.70;99.90;;;;;;5010668;28;20169;-61
2022/04/18 05:08:32;;;;;;;13.75;6.32;;;0.70;99.90;;;;;;5011652;28;20021;-61
2022/04/18 05:11:00;;;;;;;13.88;6.03;;;0.60;99.90;;;;;;5032044;28;20040;-61
2022/04/18 05:13:27;;;;;;;11.45;5.90;;;0.60;99.90;;;;;;5025545;28;20179;-61
2022/04/18 05:15:52;;;;;;;14.00;6.63;;;0.60;99.90;;;;;;4994446;28;20042;-61
2022/04/18 05:18:18;;;;;;;10.60;5.97;;;0.70;99.90;;;;;;4978684;28;20061;-61
2022/04/18 05:20:46;;;;;;;10.70;5.60;;;0.90;99.90;;;;;;4985295;28;20030;-60
2022/04/18 05:23:20;;;;;;;12.68;5.38;;;1.10;99.90;;;;;;4985033;28;20030;-61
2022/04/18 05:25:45;;;;;;;11.75;5.65;;;1.30;99.90;;;;;;4985394;28;20450;-61
2022/04/18 05:28:11;;;;;;;14.65;5.75;;;1.30;99.90;;;;;;4985148;28;20038;-61
2022/04/18 05:30:38;;;;;;;11.60;5.68;;;1.40;99.90;;;;;;4975977;28;20529;-61
2022/04/18 05:33:04;;;;;;;14.63;6.15;;;1.50;99.90;;;;;;4981452;28;20077;-61
2022/04/18 05:35:29;;;;;;;11.27;5.50;;;1.70;99.90;;;;;;4980093;28;20039;-61
2022/04/18 05:37:55;;;;;;;11.50;5.93;;;1.80;99.90;;;;;;4984710;28;20463;-61
2022/04/18 05:40:21;;;;;;;12.73;6.25;;;1.90;99.90;;;;;;4971611;28;20130;-61
2022/04/18 05:42:46;;;;;;;12.57;5.95;;;2.10;99.90;;;;;;4972702;28;20049;-61
2022/04/18 05:45:12;;;;;;;13.57;6.47;;;2.30;99.90;;;;;;4980991;28;20033;-60
2022/04/18 05:47:38;;;;;;;13.70;5.80;;;2.50;99.90;;;;;;4974229;28;20050;-61
2022/04/18 05:50:04;;;;;;;11.60;5.45;;;2.60;99.90;;;;;;4976246;28;20026;-60
2022/04/18 05:52:30;;;;;;;13.55;5.55;;;2.70;99.90;;;;;;4973394;28;20455;-60
2022/04/18 05:54:55;;;;;;;10.75;5.47;;;2.80;99.90;;;;;;4977702;28;20081;-60
2022/04/18 05:57:21;;;;;;;11.68;5.60;;;2.90;99.90;;;;;;4977816;28;20030;-60
2022/04/18 05:59:48;;;;;;;15.02;5.50;;;2.90;99.90;;;;;;4976008;28;20057;-61
2022/04/18 06:02:15;;;;;;;12.85;6.10;;;2.90;99.90;;;;;;4972670;28;20030;-60
2022/04/18 06:04:40;;;;;;;10.65;5.50;;;2.90;99.90;;;;;;4984895;28;20061;-60
2022/04/18 06:07:06;;;;;;;11.15;5.53;;;3.10;99.90;;;;;;4974525;28;20467;-61
2022/04/18 06:09:32;;;;;;;12.18;5.80;;;3.30;99.90;;;;;;4977180;28;20151;-61
2022/04/18 06:11:58;;;;;;;13.68;6.65;;;3.40;99.90;;;;;;4981205;28;20058;-61
2022/04/18 06:14:24;;;;;;;18.67;7.70;;;3.60;99.90;;;;;;4969858;28;20633;-61
2022/04/18 06:16:49;;;;;;;23.73;9.30;;;3.80;99.90;;;;;;4988311;28;20129;-60
2022/04/18 06:19:15;;;;;;;14.48;6.35;;;4.10;99.90;;;;;;4996209;28;20113;-61
2022/04/18 06:21:41;;;;;;;13.57;5.90;;;4.40;99.90;;;;;;4999187;28;20087;-61
2022/04/18 06:24:06;;;;;;;12.32;5.35;;;4.80;99.90;;;;;;4998189;28;20069;-61
2022/04/18 06:26:33;;;;;;;11.50;5.35;;;5.10;99.90;;;;;;4993619;28;20488;-61
2022/04/18 06:28:58;;;;;;;11.52;5.78;;;5.40;99.90;;;;;;4994919;28;20034;-61
2022/04/18 06:31:24;;;;;;;9.93;4.72;;;5.70;99.90;;;;;;5000726;28;20037;-61
2022/04/18 06:33:50;;;;;;;10.57;5.15;;;5.90;99.90;;;;;;4998816;28;20038;-60
2022/04/18 06:36:16;;;;;;;10.15;4.43;;;6.10;99.90;;;;;;5003075;28;20041;-61
2022/04/18 06:38:42;;;;;;;7.90;4.30;;;6.20;99.90;;;;;;4998830;28;20035;-61
2022/04/18 06:41:10;;;;;;;13.68;5.18;;;6.30;99.90;;;;;;4994464;28;20160;-61
2022/04/18 06:43:36;;;;;;;11.88;5.03;;;6.40;99.90;;;;;;4994982;28;20038;-61
2022/04/18 06:46:02;;;;;;;12.02;5.38;;;6.40;99.90;;;;;;4989103;28;20038;-61
2022/04/18 06:48:28;;;;;;;10.00;4.78;;;6.60;99.90;;;;;;4990020;28;20061;-61
2022/04/18 06:50:54;;;;;;;10.65;5.10;;;6.70;99.90;;;;;;4997083;28;20081;-61
2022/04/18 06:53:20;;;;;;;11.70;5.32;;;6.80;99.90;;;;;;4991333;28;20058;-61
2022/04/18 06:58:30;;;;;;;11.38;4.88;;;7.10;99.90;;;;;;4990025;28;20509;-61
2022/04/18 07:00:56;;;;;;;9.43;4.53;;;7.20;99.90;;;;;;4991551;28;20463;-61
2022/04/18 07:03:22;;;;;;;11.13;4.60;;;7.50;99.90;;;;;;5009169;28;20037;-61
2022/04/18 07:05:48;;;;;;;11.50;4.82;;;7.60;99.90;;;;;;4998786;28;20052;-61
2022/04/18 07:08:14;;;;;;;10.45;4.72;;;7.80;99.90;;;;;;4988779;28;20593;-61
2022/04/18 07:10:39;;;;;;;11.75;5.03;;;8.00;99.90;;;;;;5002989;28;20038;-61
2022/04/18 07:13:05;;;;;;;9.60;5.15;;;8.30;99.90;;;;;;4991991;28;20033;-61
2022/04/18 07:15:32;;;;;;;10.98;5.18;;;8.30;99.90;;;;;;4995204;28;20572;-61
2022/04/18 07:17:58;;;;;;;13.85;5.90;;;8.30;99.90;;;;;;5012757;28;20072;-61
2022/04/18 07:20:24;;;;;;;8.70;5.03;;;8.50;99.90;;;;;;5017528;28;20200;-61
2022/04/18 07:22:50;;;;;;;8.50;4.40;;;8.70;99.90;;;;;;5010903;28;20049;-61
2022/04/18 07:25:16;;;;;;;9.60;5.03;;;8.80;99.90;;;;;;5017775;28;20304;-61
2022/04/18 07:27:41;;;;;;;9.93;4.75;;;8.90;99.40;;;;;;5024576;28;20033;-61
2022/04/18 07:30:08;;;;;;;11.57;5.20;;;9.20;98.60;;;;;;5012396;28;20044;-62
2022/04/18 07:32:43;;;;;;;11.05;5.22;;;9.30;97.20;;;;;;5016579;28;20485;-62
2022/04/18 07:35:10;;;;;;;9.18;4.72;;;9.30;95.80;;;;;;5026909;28;20095;-62
2022/04/18 07:37:36;;;;;;;8.65;4.78;;;9.40;97.70;;;;;;5022432;28;20041;-61
2022/04/18 07:40:03;;;;;;;10.70;5.18;;;9.50;99.20;;;;;;5020194;28;20026;-61
2022/04/18 07:42:29;;;;;;;14.05;5.40;;;9.80;95.30;;;;;;5016710;28;20032;-61
2022/04/18 07:44:54;;;;;;;13.35;5.45;;;9.90;95.00;;;;;;5013769;28;20038;-61
2022/04/18 07:47:20;;;;;;;10.82;5.10;;;10.10;93.90;;;;;;5015732;28;20034;-61
2022/04/18 07:49:46;;;;;;;10.05;4.60;;;10.30;90.70;;;;;;5017072;28;20088;-61
2022/04/18 07:52:12;;;;;;;9.52;4.68;;;10.50;90.30;;;;;;5020924;28;20034;-61
2022/04/18 07:54:38;;;;;;;10.70;4.70;;;10.70;86.40;;;;;;5022326;28;20116;-61
2022/04/18 07:57:05;;;;;;;10.93;4.50;;;10.70;83.30;;;;;;5013844;28;20065;-61
2022/04/18 07:59:32;;;;;;;9.00;4.45;;;10.90;84.00;;;;;;5019597;28;20030;-62
2022/04/18 08:01:57;;;;;;;8.80;4.10;;;11.00;80.40;;;;;;5018741;28;20130;-61
2022/04/18 08:04:23;;;;;;;8.38;4.18;;;11.20;77.20;;;;;;5016282;28;20053;-62
2022/04/18 08:06:48;;;;;;;7.63;4.10;;;11.50;80.10;;;;;;5020757;28;20489;-61
2022/04/18 08:09:14;;;;;;;9.27;4.50;;;11.50;77.50;;;;;;5019967;28;21007;-61
2022/04/18 08:11:40;;;;;;;9.60;4.25;;;11.60;76.20;;;;;;4998002;28;20025;-61
2022/04/18 08:14:06;;;;;;;10.98;4.28;;;11.80;75.40;;;;;;5018952;28;20120;-63
2022/04/18 08:16:32;;;;;;;12.02;4.50;;;11.80;71.10;;;;;;5018084;28;20046;-61
2022/04/18 08:18:57;;;;;;;7.95;4.38;;;11.70;68.30;;;;;;5002310;28;20073;-61
2022/04/18 08:21:23;;;;;;;9.70;4.40;;;11.60;69.10;;;;;;5027180;28;20025;-61
2022/04/18 08:23:53;;;;;;;7.35;4.20;;;11.70;67.90;;;;;;5025815;28;20041;-61
2022/04/18 08:26:22;;;;;;;8.80;4.13;;;11.70;70.70;;;;;;5020119;28;20107;-61
2022/04/18 08:28:47;;;;;;;9.10;4.30;;;11.80;66.70;;;;;;5026456;28;20498;-62
2022/04/18 08:31:13;;;;;;;10.00;4.60;;;12.00;64.10;;;;;;5022030;28;20041;-62
2022/04/18 08:33:39;;;;;;;7.40;4.13;;;12.00;63.10;;;;;;5018443;28;20030;-61
2022/04/18 08:36:05;;;;;;;7.38;4.35;;;12.00;64.70;;;;;;5019546;28;20029;-61
2022/04/18 08:38:31;;;;;;;8.75;4.13;;;12.10;64.10;;;;;;5017954;28;20080;-61
2022/04/18 08:41:04;;;;;;;10.52;4.28;;;12.20;63.30;;;;;;5030447;28;20022;-61
2022/04/18 08:43:30;;;;;;;12.50;4.53;;;12.20;64.10;;;;;;5006448;28;20038;-61
2022/04/18 08:45:56;;;;;;;10.38;4.72;;;12.30;62.50;;;;;;5016344;28;20386;-62
2022/04/18 08:53:58;;;;;;;8.38;4.25;;;12.70;63.00;;;;;;5011374;28;20048;-62
2022/04/18 08:56:26;;;;;;;9.20;4.18;;;12.70;61.70;;;;;;5019557;28;20041;-63
2022/04/18 08:58:51;;;;;;;10.35;4.57;;;12.70;60.10;;;;;;5018052;28;20029;-62
2022/04/18 09:01:17;;;;;;;9.18;4.60;;;12.70;60.30;;;;;;5012442;28;20192;-62
2022/04/18 09:03:44;;;;;;;11.32;4.35;;;12.70;58.70;;;;;;5014033;28;20026;-63
2022/04/18 09:06:12;;;;;;;9.00;4.85;;;12.90;60.00;;;;;;5012117;28;20117;-62
2022/04/18 09:08:51;;;;;;;7.43;3.92;;;12.80;59.50;;;;;;5012029;28;20040;-63
2022/04/18 09:11:30;;;;;;;8.50;4.25;;;13.00;61.40;;;;;;5017203;28;20057;-63
2022/04/18 09:14:06;;;;;;;8.73;4.32;;;13.00;58.00;;;;;;5020077;28;20117;-62
2022/04/18 09:16:33;;;;;;;8.55;4.20;;;13.00;61.20;;;;;;4996878;28;20120;-62
2022/04/18 09:19:16;;;;;;;7.97;3.97;;;13.30;59.60;;;;;;5011184;28;20034;-62
2022/04/18 09:22:01;;;;;;;10.00;4.53;;;13.60;58.60;;;;;;5025704;28;20395;-63
2022/04/18 09:24:34;;;;;;;8.90;4.30;;;13.70;57.70;;;;;;5020124;28;20042;-62
2022/04/18 09:27:27;;;;;;;8.52;4.25;;;13.70;56.60;;;;;;5023255;28;20489;-61
2022/04/18 09:30:06;;;;;;;9.35;3.50;;;13.80;57.10;;;;;;5024680;28;20514;-62
2022/04/18 09:32:31;;;;;;;7.53;4.15;;;13.80;55.90;;;;;;5014056;28;20040;-62
2022/04/18 09:35:02;;;;;;;7.85;3.90;;;13.60;57.60;;;;;;5023348;28;20308;-72
2022/04/18 09:37:28;;;;;;;;;;;13.40;57.60;;;;;;5029819;28;20041;-63
2022/04/18 09:39:54;;;;;;;9.07;3.95;;;13.60;56.70;;;;;;5017764;28;19920;-63
2022/04/18 09:42:22;;;;;;;7.97;3.90;;;14.00;57.60;;;;;;5010100;28;20886;-63
2022/04/18 09:44:48;;;;;;;7.75;3.78;;;14.10;53.90;;;;;;5001981;28;20034;-62
2022/04/18 09:47:17;;;;;;;6.80;3.83;;;14.00;55.70;;;;;;5013233;28;20069;-63
2022/04/18 09:49:43;;;;;;;9.43;4.03;;;14.00;55.40;;;;;;5023403;28;20107;-63
2022/04/18 09:52:27;;;;;;;8.18;4.15;;;14.10;54.80;;;;;;4996811;28;20693;-63
2022/04/18 09:54:56;;;;;;;8.75;4.15;;;14.20;55.60;;;;;;5020017;28;20049;-62
2022/04/18 09:57:26;;;;;;;8.23;4.20;;;14.40;54.00;;;;;;5016092;28;20666;-64
2022/04/18 09:59:53;;;;;;;8.68;3.90;;;14.30;52.40;;;;;;5004077;28;20072;-64
2022/04/18 10:02:20;;;;;;;6.75;3.75;;;14.20;51.70;;;;;;5017534;28;20048;-63
2022/04/18 10:04:46;;;;;;;9.15;3.90;;;14.40;52.80;;;;;;5016389;28;20026;-63
2022/04/18 10:07:13;;;;;;;8.25;3.88;;;14.80;55.60;;;;;;5009471;28;20443;-62
2022/04/18 10:09:43;;;;;;;6.55;3.45;;;14.80;53.80;;;;;;5000677;28;20117;-62
2022/04/18 10:12:10;;;;;;;8.32;3.60;;;14.90;51.00;;;;;;5009958;28;20156;-62
2022/04/18 10:14:40;;;;;;;10.55;4.25;;;14.80;51.50;;;;;;5019098;28;20063;-63
2022/04/18 10:17:08;;;;;;;7.00;3.80;;;14.50;50.80;;;;;;5015820;28;20136;-62
2022/04/18 10:19:56;;;;;;;7.82;3.55;;;14.40;53.20;;;;;;5017465;28;20116;-63
2022/04/18 10:22:21;;;;;;;6.25;3.38;;;14.70;51.80;;;;;;5016326;28;20358;-62
2022/04/18 10:24:56;;;;;;;6.60;3.30;;;15.00;52.40;;;;;;5010474;28;20045;-62
2022/04/18 10:27:32;;;;;;;8.73;4.00;;;15.20;50.90;;;;;;5014731;28;20033;-62
2022/04/18 10:30:01;;;;;;;8.77;4.10;;;15.20;50.30;;;;;;4992369;28;20168;-62
2022/04/18 10:32:27;;;;;;;7.53;3.75;;;15.30;51.00;;;;;;5016128;28;20029;-63
2022/04/18 10:35:01;;;;;;;6.93;3.72;;;15.20;50.90;;;;;;5015964;28;20036;-63
2022/04/18 10:37:28;;;;;;;7.47;3.35;;;15.10;50.30;;;;;;5009104;28;20034;-62
2022/04/18 10:40:06;;;;;;;7.70;3.63;;;14.90;50.50;;;;;;5009307;28;20401;-62
2022/04/18 10:42:33;;;;;;;9.15;4.03;;;14.80;51.10;;;;;;4999806;28;20124;-63
2022/04/18 10:45:06;;;;;;;8.48;3.90;;;14.70;50.30;;;;;;5009581;28;20045;-62
2022/04/18 10:48:01;;;;;;;9.82;3.72;;;15.10;52.70;;;;;;5009279;28;20477;-62
2022/04/18 10:50:50;;;;;;;6.50;3.60;;;15.40;51.10;;;;;;5009057;28;20034;-62
2022/04/18 10:53:20;;;;;;;7.47;4.40;;;15.30;51.90;;;;;;5016278;28;20708;-63
2022/04/18 10:55:51;;;;;;;8.60;4.28;;;15.70;49.90;;;;;;5009054;28;20442;-62
2022/04/18 10:58:21;;;;;;;7.32;3.88;;;15.60;50.20;;;;;;5009921;28;20037;-62
2022/04/18 11:00:52;;;;;;;7.70;3.80;;;15.50;50.90;;;;;;5010109;28;20022;-62
2022/04/18 11:03:36;;;;;;;7.20;4.10;;;15.60;51.10;;;;;;5015503;28;20295;-62
2022/04/18 11:06:37;;;;;;;11.30;4.55;;;15.50;48.80;;;;;;5009137;28;20038;-63
2022/04/18 11:09:14;;;;;;;6.65;3.40;;;15.20;51.70;;;;;;5011542;28;20061;-62
2022/04/18 11:11:46;;;;;;;7.55;3.95;;;15.50;51.80;;;;;;5013643;28;20033;-63
2022/04/18 11:14:20;;;;;;;8.40;3.97;;;15.50;49.10;;;;;;5008323;28;20038;-63
2022/04/18 11:16:47;;;;;;;9.35;3.53;;;15.50;50.40;;;;;;4991535;28;20509;-63
2022/04/18 11:19:15;;;;;;;9.38;3.67;;;15.80;48.30;;;;;;5011122;28;20034;-62
2022/04/18 11:21:57;;;;;;;7.20;4.20;;;15.60;49.10;;;;;;5015351;28;20537;-62
2022/04/18 11:24:56;;;;;;;7.60;4.03;;;15.70;48.90;;;;;;5027614;28;20021;-63
2022/04/18 11:27:25;;;;;;;9.30;3.58;;;16.00;47.60;;;;;;5016160;28;20072;-62
2022/04/18 11:30:03;;;;;;;6.18;3.20;;;16.20;52.30;;;;;;5009575;28;20030;-63
2022/04/18 11:32:38;;;;;;;7.57;3.92;;;16.60;48.80;;;;;;5008690;28;20212;-62
2022/04/18 11:35:06;;;;;;;8.40;3.53;;;16.70;48.80;;;;;;5009415;28;20045;-63
2022/04/18 11:37:35;;;;;;;7.43;3.35;;;16.40;46.60;;;;;;5015425;28;20021;-63
2022/04/18 11:40:05;;;;;;;6.30;3.30;;;16.10;47.60;;;;;;5021156;28;20045;-62
2022/04/18 11:42:32;;;;;;;5.22;3.17;;;16.10;47.10;;;;;;5017662;28;20075;-62
2022/04/18 11:45:02;;;;;;;5.43;3.17;;;15.80;46.60;;;;;;5015156;28;20056;-62
2022/04/18 11:47:38;;;;;;;7.05;3.40;;;15.90;44.90;;;;;;5024380;28;20490;-62
2022/04/18 11:50:05;;;;;;;7.28;3.42;;;16.30;48.50;;;;;;5009736;28;20026;-62
2022/04/18 11:52:36;;;;;;;6.65;3.75;;;16.60;45.90;;;;;;4998331;28;20101;-62
2022/04/18 11:55:09;;;;;;;6.45;3.40;;;16.80;45.60;;;;;;5013924;28;20073;-62
2022/04/18 11:57:36;;;;;;;5.68;3.22;;;16.90;46.30;;;;;;5020993;28;20026;-62
2022/04/18 12:00:09;;;;;;;8.38;2.97;;;16.70;45.00;;;;;;5009497;28;20046;-62
2022/04/18 12:08:07;;;;;;;4.88;2.85;;;16.30;45.70;;;;;;5026267;28;20509;-62
2022/04/18 12:10:36;;;;;;;6.47;3.20;;;16.50;45.60;;;;;;5017059;28;20022;-62
2022/04/18 12:13:07;;;;;;;6.55;3.25;;;16.40;46.10;;;;;;5024849;28;20064;-62
2022/04/18 12:15:34;;;;;;;6.38;3.78;;;16.40;45.10;;;;;;5019776;28;20045;-62
2022/04/18 12:18:16;;;;;;;7.63;3.25;;;16.40;46.70;;;;;;5000269;28;20088;-62
2022/04/18 12:20:44;;;;;;;6.97;3.42;;;16.50;45.00;;;;;;5012583;28;20058;-62
2022/04/18 12:23:16;;;;;;;7.10;2.95;;;16.00;46.10;;;;;;5014969;28;20048;-62
2022/04/18 12:25:46;;;;;;;5.57;2.88;;;16.30;47.90;;;;;;5023700;28;20033;-62
2022/04/18 12:28:12;;;;;;;6.55;3.13;;;16.70;46.20;;;;;;5017844;28;20081;-62
2022/04/18 12:30:38;;;;;;;6.57;3.22;;;16.40;44.70;;;;;;5018598;28;20062;-62
2022/04/18 12:33:26;;;;;;;13.52;6.40;;;16.10;46.70;;;;;;5023034;28;20042;-62
2022/04/18 12:35:54;;;;;;;28.90;15.10;;;16.40;47.60;;;;;;5014481;28;20061;-62
2022/04/18 12:38:28;;;;;;;20.00;10.23;;;16.60;47.70;;;;;;5019665;28;20390;-62
2022/04/18 12:40:56;;;;;;;25.52;13.90;;;16.70;46.90;;;;;;5020584;28;20032;-62
2022/04/18 12:43:28;;;;;;;23.45;12.55;;;17.00;46.40;;;;;;5020090;28;20032;-62
2022/04/18 12:46:00;;;;;;;7.07;4.60;;;17.10;46.80;;;;;;5023111;28;20052;-62
2022/04/18 12:48:32;;;;;;;6.38;3.28;;;17.20;47.40;;;;;;5017026;28;20135;-62
2022/04/18 12:50:59;;;;;;;5.38;3.22;;;17.30;46.90;;;;;;5026639;28;20087;-62
2022/04/18 12:53:51;;;;;;;6.13;3.25;;;17.50;45.90;;;;;;5014335;28;20038;-62
2022/04/18 12:56:22;;;;;;;6.35;3.10;;;17.50;46.90;;;;;;5025286;28;20069;-62
2022/04/18 12:59:00;;;;;;;9.32;5.13;;;17.00;45.40;;;;;;5030050;28;20021;-61
2022/04/18 13:01:30;;;;;;;9.05;4.85;;;16.50;45.90;;;;;;5013942;28;20117;-61
2022/04/18 13:03:56;;;;;;;84.75;53.50;;;16.40;48.90;;;;;;5019903;28;20171;-61
2022/04/18 13:06:23;;;;;;;14.75;7.88;;;17.00;48.90;;;;;;5020763;28;20025;-61
2022/04/18 13:08:50;;;;;;;11.70;5.18;;;17.20;45.70;;;;;;5015938;28;20033;-61
2022/04/18 13:11:17;;;;;;;6.07;2.92;;;17.20;46.80;;;;;;5021824;28;20064;-61
2022/04/18 13:13:44;;;;;;;5.68;2.85;;;17.10;46.90;;;;;;5020383;28;20030;-61
2022/04/18 13:16:24;;;;;;;6.85;2.28;;;17.30;45.80;;;;;;5022808;28;20057;-61
2022/04/18 13:19:14;;;;;;;5.57;2.50;;;17.00;45.20;;;;;;5023023;28;20022;-61